createdAt,value
2017-02-02T00:00:07.643Z,3.34
2017-02-02T00:01:07.225Z,3.29
2017-02-02T00:02:07.778Z,3.37
2017-02-02T00:03:07.370Z,3.23
2017-02-02T00:04:07.931Z,3.28
2017-02-02T00:05:07.566Z,3.39
2017-02-02T00:06:08.461Z,3.17
2017-02-02T00:07:08.366Z,3.34
2017-02-02T00:08:07.983Z,3.33
2017-02-02T00:09:07.564Z,3.51
2017-02-02T00:10:08.171Z,3.39
2017-02-02T00:11:07.679Z,3.42
2017-02-02T00:12:07.188Z,3.54
2017-02-02T00:13:07.723Z,3.43
2017-02-02T00:14:07.323Z,3.27
2017-02-02T00:15:07.823Z,3.23
2017-02-02T00:16:19.977Z,3.35
2017-02-02T00:17:07.911Z,3.44
2017-02-02T00:18:07.467Z,3.49
2017-02-02T00:19:07.967Z,3.34
2017-02-02T00:20:07.852Z,3.46
2017-02-02T00:21:07.554Z,3.45
2017-02-02T00:22:08.169Z,3.31
2017-02-02T00:23:07.733Z,3.31
2017-02-02T00:24:07.289Z,3.14
2017-02-02T00:25:07.810Z,3.12
2017-02-02T00:26:07.427Z,3.10
2017-02-02T00:27:07.922Z,3.20
2017-02-02T00:28:07.494Z,3.21
2017-02-02T00:29:08.023Z,3.36
2017-02-02T00:30:07.611Z,3.46
2017-02-02T00:31:07.174Z,3.39
2017-02-02T00:32:07.744Z,3.31
2017-02-02T00:33:07.649Z,3.48
2017-02-02T00:34:07.148Z,3.39
2017-02-02T00:35:07.725Z,3.23
2017-02-02T00:36:07.411Z,3.31
2017-02-02T00:37:07.987Z,3.20
2017-02-02T00:38:07.554Z,3.45
2017-02-02T00:39:07.260Z,3.25
2017-02-02T00:40:07.974Z,3.23
2017-02-02T00:41:07.516Z,3.39
2017-02-02T00:42:08.085Z,3.41
2017-02-02T00:43:07.854Z,3.26
2017-02-02T00:44:07.431Z,3.24
2017-02-02T00:45:07.926Z,3.33
2017-02-02T00:46:07.736Z,3.20
2017-02-02T00:47:07.245Z,3.10
2017-02-02T00:48:07.903Z,3.08
2017-02-02T00:49:07.458Z,3.02
2017-02-02T00:50:07.936Z,3.11
2017-02-02T00:51:07.502Z,3.02
2017-02-02T00:52:08.236Z,3.08
2017-02-02T00:53:07.921Z,3.12
2017-02-02T00:54:07.460Z,3.17
2017-02-02T00:55:07.993Z,3.21
2017-02-02T00:56:07.815Z,3.23
2017-02-02T00:57:07.363Z,3.22
2017-02-02T00:58:07.902Z,3.20
2017-02-02T00:59:07.771Z,3.38
2017-02-02T01:00:07.303Z,3.31
2017-02-02T01:01:07.953Z,3.38
2017-02-02T01:02:07.550Z,3.41
2017-02-02T01:03:08.075Z,3.35
2017-02-02T01:04:07.720Z,3.46
2017-02-02T01:05:07.251Z,3.23
2017-02-02T01:06:07.902Z,3.15
2017-02-02T01:07:07.639Z,2.94
2017-02-02T01:08:07.200Z,3.02
2017-02-02T01:09:07.786Z,2.96
2017-02-02T01:10:07.513Z,3.05
2017-02-02T01:11:08.052Z,3.24
2017-02-02T01:12:07.691Z,3.30
2017-02-02T01:13:07.202Z,3.19
2017-02-02T01:14:08.104Z,3.26
2017-02-02T01:15:07.871Z,3.02
2017-02-02T01:16:07.462Z,3.18
2017-02-02T01:17:08.141Z,3.23
2017-02-02T01:18:07.668Z,3.31
2017-02-02T01:19:07.138Z,3.15
2017-02-02T01:20:07.659Z,3.03
2017-02-02T01:21:07.205Z,3.07
2017-02-02T01:22:07.879Z,2.99
2017-02-02T01:23:07.462Z,3.12
2017-02-02T01:24:07.946Z,2.97
2017-02-02T01:25:07.490Z,3.00
2017-02-02T01:26:08.113Z,3.07
2017-02-02T01:27:07.582Z,3.06
2017-02-02T01:28:07.922Z,2.97
2017-02-02T01:29:07.574Z,3.11
2017-02-02T01:30:08.117Z,3.20
2017-02-02T01:31:07.715Z,3.19
2017-02-02T01:32:07.346Z,3.26
2017-02-02T01:33:07.909Z,3.08
2017-02-02T01:34:07.470Z,3.09
2017-02-02T01:35:08.007Z,2.75
2017-02-02T01:36:07.654Z,2.82
2017-02-02T01:37:07.210Z,2.86
2017-02-02T01:38:08.661Z,2.96
2017-02-02T01:39:07.428Z,2.75
2017-02-02T01:40:07.853Z,2.78
2017-02-02T01:41:07.994Z,2.90
2017-02-02T01:42:07.549Z,2.93
2017-02-02T01:43:07.192Z,2.79
2017-02-02T01:44:07.766Z,2.92
2017-02-02T01:45:08.177Z,2.72
2017-02-02T01:46:07.925Z,2.73
2017-02-02T01:47:07.484Z,2.80
2017-02-02T01:48:08.084Z,2.74
2017-02-02T01:49:07.642Z,2.86
2017-02-02T01:50:07.263Z,2.94
2017-02-02T01:51:08.061Z,3.00
2017-02-02T01:52:07.582Z,3.11
2017-02-02T01:53:07.108Z,2.85
2017-02-02T01:54:07.474Z,2.97
2017-02-02T01:55:07.994Z,3.00
2017-02-02T01:56:07.566Z,2.97
2017-02-02T01:57:08.297Z,2.90
2017-02-02T01:58:08.045Z,2.90
2017-02-02T01:59:07.598Z,2.67
2017-02-02T02:00:07.130Z,2.84
2017-02-02T02:01:07.630Z,3.04
2017-02-02T02:02:07.402Z,3.07
2017-02-02T02:03:07.998Z,3.09
2017-02-02T02:04:07.706Z,2.84
2017-02-02T02:05:07.441Z,2.77
2017-02-02T02:06:07.925Z,2.91
2017-02-02T02:07:07.538Z,2.81
2017-02-02T02:08:08.265Z,2.62
2017-02-02T02:09:08.680Z,2.70
2017-02-02T02:10:07.166Z,2.55
2017-02-02T02:11:07.715Z,2.74
2017-02-02T02:12:07.273Z,2.64
2017-02-02T02:13:07.798Z,2.85
2017-02-02T02:14:07.387Z,2.96
2017-02-02T02:15:08.200Z,3.02
2017-02-02T02:16:07.715Z,2.75
2017-02-02T02:17:07.459Z,2.95
2017-02-02T02:18:07.954Z,2.83
2017-02-02T02:19:07.538Z,2.72
2017-02-02T02:20:08.093Z,2.85
2017-02-02T02:21:07.694Z,2.96
2017-02-02T02:22:07.337Z,2.92
2017-02-02T02:23:07.860Z,2.90
2017-02-02T02:24:07.763Z,2.94
2017-02-02T02:25:07.359Z,2.90
2017-02-02T02:26:07.897Z,2.84
2017-02-02T02:27:07.477Z,2.86
2017-02-02T02:28:08.029Z,2.91
2017-02-02T02:29:07.568Z,2.92
2017-02-02T02:30:08.207Z,2.96
2017-02-02T02:31:07.707Z,3.07
2017-02-02T02:32:07.467Z,2.85
2017-02-02T02:33:08.036Z,2.81
2017-02-02T02:34:07.648Z,2.93
2017-02-02T02:35:07.375Z,3.04
2017-02-02T02:36:08.131Z,2.94
2017-02-02T02:37:07.680Z,2.86
2017-02-02T02:38:07.237Z,2.88
2017-02-02T02:39:08.090Z,2.95
2017-02-02T02:40:07.688Z,2.82
2017-02-02T02:41:07.176Z,2.96
2017-02-02T02:42:07.675Z,2.92
2017-02-02T02:43:07.259Z,2.80
2017-02-02T02:44:08.144Z,2.62
2017-02-02T02:45:07.813Z,2.91
2017-02-02T02:46:19.946Z,2.72
2017-02-02T02:47:07.518Z,2.99
2017-02-02T02:48:07.991Z,2.87
2017-02-02T02:49:07.505Z,2.78
2017-02-02T02:50:08.180Z,2.83
2017-02-02T02:51:07.746Z,2.85
2017-02-02T02:52:07.350Z,2.81
2017-02-02T02:53:07.860Z,3.01
2017-02-02T02:54:07.744Z,2.84
2017-02-02T02:55:07.264Z,2.70
2017-02-02T02:56:07.992Z,3.04
2017-02-02T02:57:07.483Z,2.80
2017-02-02T02:58:07.997Z,2.90
2017-02-02T02:59:07.540Z,2.92
2017-02-02T03:00:08.647Z,2.85
2017-02-02T03:01:07.299Z,2.82
2017-02-02T03:02:07.984Z,3.09
2017-02-02T03:03:07.524Z,2.92
2017-02-02T03:04:07.647Z,2.91
2017-02-02T03:05:07.167Z,2.97
2017-02-02T03:06:07.832Z,2.80
2017-02-02T03:07:07.461Z,2.73
2017-02-02T03:08:08.113Z,2.77
2017-02-02T03:09:07.947Z,2.71
2017-02-02T03:10:07.467Z,2.94
2017-02-02T03:11:08.332Z,3.10
2017-02-02T03:12:07.890Z,2.94
2017-02-02T03:13:07.387Z,2.71
2017-02-02T03:14:08.025Z,2.74
2017-02-02T03:15:07.703Z,2.82
2017-02-02T03:16:07.211Z,2.83
2017-02-02T03:17:07.944Z,2.96
2017-02-02T03:18:07.440Z,3.03
2017-02-02T03:19:08.141Z,2.95
2017-02-02T03:20:07.832Z,3.04
2017-02-02T03:21:07.318Z,2.99
2017-02-02T03:22:07.825Z,3.15
2017-02-02T03:23:07.771Z,3.11
2017-02-02T03:24:07.857Z,2.81
2017-02-02T03:25:07.503Z,2.70
2017-02-02T03:26:08.057Z,2.75
2017-02-02T03:27:07.643Z,2.66
2017-02-02T03:28:07.180Z,2.64
2017-02-02T03:29:07.716Z,2.96
2017-02-02T03:30:08.174Z,3.16
2017-02-02T03:31:07.717Z,3.27
2017-02-02T03:32:07.250Z,3.18
2017-02-02T03:33:07.827Z,3.29
2017-02-02T03:34:07.307Z,3.27
2017-02-02T03:35:07.795Z,2.99
2017-02-02T03:36:08.236Z,3.00
2017-02-02T03:37:07.795Z,3.21
2017-02-02T03:38:07.381Z,3.17
2017-02-02T03:39:07.886Z,2.97
2017-02-02T03:40:07.456Z,2.76
2017-02-02T03:41:07.981Z,2.93
2017-02-02T03:42:07.601Z,2.90
2017-02-02T03:43:07.271Z,3.02
2017-02-02T03:44:07.821Z,2.79
2017-02-02T03:45:07.298Z,2.81
2017-02-02T03:46:07.939Z,2.72
2017-02-02T03:47:07.577Z,2.99
2017-02-02T03:48:08.035Z,3.15
2017-02-02T03:49:07.528Z,2.99
2017-02-02T03:50:09.180Z,2.96
2017-02-02T03:51:07.760Z,2.84
2017-02-02T03:52:07.380Z,2.79
2017-02-02T03:53:07.855Z,2.84
2017-02-02T03:54:07.439Z,2.90
2017-02-02T03:55:07.990Z,2.86
2017-02-02T03:56:07.571Z,2.83
2017-02-02T03:57:08.347Z,2.86
2017-02-02T03:58:07.831Z,2.91
2017-02-02T03:59:07.462Z,2.82
2017-02-02T04:00:07.994Z,2.91
2017-02-02T04:01:07.485Z,3.03
2017-02-02T04:02:08.028Z,3.15
2017-02-02T04:03:07.592Z,2.79
2017-02-02T04:04:07.134Z,2.80
2017-02-02T04:05:07.660Z,2.99
2017-02-02T04:06:07.781Z,3.08
2017-02-02T04:07:07.446Z,2.96
2017-02-02T04:08:08.008Z,2.95
2017-02-02T04:09:07.490Z,3.04
2017-02-02T04:10:08.381Z,3.18
2017-02-02T04:11:07.855Z,3.08
2017-02-02T04:12:07.442Z,2.96
2017-02-02T04:13:08.219Z,2.86
2017-02-02T04:14:07.712Z,2.75
2017-02-02T04:15:07.289Z,2.75
2017-02-02T04:16:07.797Z,2.83
2017-02-02T04:17:07.574Z,2.97
2017-02-02T04:18:08.258Z,3.04
2017-02-02T04:19:07.822Z,3.09
2017-02-02T04:20:07.320Z,3.07
2017-02-02T04:21:07.890Z,2.96
2017-02-02T04:22:07.534Z,3.08
2017-02-02T04:23:08.322Z,3.10
2017-02-02T04:24:07.846Z,3.14
2017-02-02T04:25:07.470Z,3.30
2017-02-02T04:26:07.983Z,3.24
2017-02-02T04:27:07.735Z,3.18
2017-02-02T04:28:07.213Z,3.31
2017-02-02T04:29:07.721Z,3.11
2017-02-02T04:30:07.460Z,3.13
2017-02-02T04:31:08.011Z,3.17
2017-02-02T04:32:07.491Z,3.08
2017-02-02T04:33:08.113Z,2.83
2017-02-02T04:34:07.718Z,3.14
2017-02-02T04:35:08.150Z,3.02
2017-02-02T04:36:08.028Z,3.03
2017-02-02T04:37:07.552Z,3.03
2017-02-02T04:38:08.176Z,2.99
2017-02-02T04:39:07.892Z,3.08
2017-02-02T04:40:07.473Z,3.02
2017-02-02T04:41:07.960Z,3.04
2017-02-02T04:42:07.470Z,3.08
2017-02-02T04:43:08.000Z,3.26
2017-02-02T04:44:07.632Z,2.84
2017-02-02T04:45:07.200Z,2.88
2017-02-02T04:46:07.705Z,3.12
2017-02-02T04:47:07.188Z,3.20
2017-02-02T04:48:07.817Z,3.06
2017-02-02T04:49:07.364Z,3.03
2017-02-02T04:50:07.929Z,3.16
2017-02-02T04:51:07.847Z,3.12
2017-02-02T04:52:07.452Z,3.07
2017-02-02T04:53:07.981Z,3.13
2017-02-02T04:54:07.607Z,3.23
2017-02-02T04:55:07.084Z,3.29
2017-02-02T04:56:07.692Z,3.19
2017-02-02T04:57:07.212Z,3.15
2017-02-02T04:58:07.887Z,3.13
2017-02-02T04:59:07.517Z,2.96
2017-02-02T05:00:08.092Z,3.06
2017-02-02T05:01:07.763Z,3.22
2017-02-02T05:02:07.389Z,3.22
2017-02-02T05:03:07.902Z,3.23
2017-02-02T05:04:07.413Z,3.05
2017-02-02T05:05:07.399Z,3.08
2017-02-02T05:06:08.145Z,3.02
2017-02-02T05:07:07.631Z,2.92
2017-02-02T05:08:07.434Z,2.92
2017-02-02T05:09:08.018Z,2.94
2017-02-02T05:10:07.541Z,2.94
2017-02-02T05:11:08.079Z,2.85
2017-02-02T05:12:08.553Z,3.05
2017-02-02T05:13:08.092Z,3.15
2017-02-02T05:14:07.638Z,3.22
2017-02-02T05:15:07.262Z,3.24
2017-02-02T05:16:07.804Z,3.35
2017-02-02T05:17:07.296Z,3.26
2017-02-02T05:18:08.011Z,3.20
2017-02-02T05:19:07.637Z,3.28
2017-02-02T05:20:07.234Z,3.29
2017-02-02T05:21:07.836Z,3.43
2017-02-02T05:22:07.442Z,3.41
2017-02-02T05:23:07.960Z,3.44
2017-02-02T05:24:07.583Z,3.19
2017-02-02T05:25:10.861Z,3.08
2017-02-02T05:26:07.830Z,3.11
2017-02-02T05:27:07.392Z,2.96
2017-02-02T05:28:08.065Z,2.96
2017-02-02T05:29:07.930Z,3.00
2017-02-02T05:30:07.492Z,2.99
2017-02-02T05:31:07.992Z,3.11
2017-02-02T05:32:07.453Z,3.25
2017-02-02T05:33:08.019Z,3.23
2017-02-02T05:34:07.552Z,3.25
2017-02-02T05:35:08.124Z,3.24
2017-02-02T05:36:07.788Z,3.09
2017-02-02T05:37:07.358Z,3.24
2017-02-02T05:38:07.957Z,3.36
2017-02-02T05:39:07.815Z,3.37
2017-02-02T05:40:07.336Z,3.23
2017-02-02T05:41:07.951Z,3.17
2017-02-02T05:42:07.445Z,3.17
2017-02-02T05:43:08.000Z,3.33
2017-02-02T05:44:07.500Z,3.23
2017-02-02T05:45:07.848Z,3.16
2017-02-02T05:46:07.501Z,3.09
2017-02-02T05:47:08.011Z,3.03
2017-02-02T05:48:07.798Z,3.04
2017-02-02T05:49:07.362Z,3.05
2017-02-02T05:50:07.867Z,3.14
2017-02-02T05:51:07.498Z,3.07
2017-02-02T05:52:08.117Z,3.03
2017-02-02T05:53:07.657Z,2.98
2017-02-02T05:54:07.297Z,3.07
2017-02-02T05:55:07.995Z,3.22
2017-02-02T05:56:07.435Z,3.09
2017-02-02T05:57:07.948Z,3.07
2017-02-02T05:58:07.449Z,3.15
2017-02-02T05:59:08.038Z,3.18
2017-02-02T06:00:07.596Z,3.19
2017-02-02T06:01:07.118Z,2.96
2017-02-02T06:02:07.589Z,2.94
2017-02-02T06:03:07.188Z,3.12
2017-02-02T06:04:07.714Z,3.24
2017-02-02T06:05:07.594Z,3.25
2017-02-02T06:06:07.318Z,3.39
2017-02-02T06:07:07.953Z,3.36
2017-02-02T06:08:08.446Z,3.33
2017-02-02T06:09:07.983Z,3.29
2017-02-02T06:10:07.558Z,3.36
2017-02-02T06:11:08.268Z,3.34
2017-02-02T06:12:07.757Z,3.32
2017-02-02T06:13:07.280Z,3.49
2017-02-02T06:14:07.846Z,3.36
2017-02-02T06:15:07.387Z,3.27
2017-02-02T06:16:08.208Z,3.15
2017-02-02T06:17:07.876Z,3.20
2017-02-02T06:18:07.397Z,3.04
2017-02-02T06:19:08.200Z,3.18
2017-02-02T06:20:07.662Z,3.22
2017-02-02T06:21:07.720Z,3.27
2017-02-02T06:22:07.497Z,3.26
2017-02-02T06:23:08.103Z,3.30
2017-02-02T06:24:07.702Z,3.32
2017-02-02T06:25:07.301Z,3.20
2017-02-02T06:26:07.855Z,3.11
2017-02-02T06:27:07.648Z,3.10
2017-02-02T06:28:07.147Z,3.02
2017-02-02T06:29:07.698Z,3.21
2017-02-02T06:30:07.313Z,3.27
2017-02-02T06:31:08.162Z,3.30
2017-02-02T06:32:07.714Z,3.27
2017-02-02T06:33:07.285Z,3.26
2017-02-02T06:34:07.725Z,3.25
2017-02-02T06:35:07.342Z,3.34
2017-02-02T06:36:08.002Z,3.39
2017-02-02T06:37:07.518Z,3.35
2017-02-02T06:38:08.184Z,3.32
2017-02-02T06:39:07.813Z,3.16
2017-02-02T06:40:08.301Z,3.23
2017-02-02T06:41:07.876Z,2.95
2017-02-02T06:42:07.809Z,2.95
2017-02-02T06:43:07.365Z,2.88
2017-02-02T06:44:07.917Z,2.87
2017-02-02T06:45:07.675Z,2.95
2017-02-02T06:46:07.237Z,3.08
2017-02-02T06:47:07.731Z,3.16
2017-02-02T06:48:07.394Z,3.15
2017-02-02T06:49:08.025Z,3.24
2017-02-02T06:50:07.504Z,3.16
2017-02-02T06:51:08.085Z,3.11
2017-02-02T06:52:07.826Z,3.19
2017-02-02T06:53:07.327Z,3.32
2017-02-02T06:54:07.879Z,3.33
2017-02-02T06:55:07.641Z,3.14
2017-02-02T06:56:07.143Z,3.16
2017-02-02T06:57:07.819Z,3.01
2017-02-02T06:58:07.438Z,3.08
2017-02-02T06:59:07.990Z,3.27
2017-02-02T07:00:07.570Z,3.50
2017-02-02T07:01:08.095Z,3.40
2017-02-02T07:02:07.930Z,3.30
2017-02-02T07:03:08.356Z,3.38
2017-02-02T07:04:07.920Z,3.28
2017-02-02T07:05:07.401Z,3.44
2017-02-02T07:06:08.027Z,3.27
2017-02-02T07:07:07.555Z,3.02
2017-02-02T07:08:08.214Z,3.13
2017-02-02T07:09:07.815Z,3.17
2017-02-02T07:10:07.405Z,3.13
2017-02-02T07:11:07.954Z,3.14
2017-02-02T07:12:07.515Z,3.32
2017-02-02T07:13:08.094Z,3.26
2017-02-02T07:14:07.672Z,3.16
2017-02-02T07:15:07.167Z,3.21
2017-02-02T07:16:07.694Z,3.48
2017-02-02T07:17:07.388Z,3.45
2017-02-02T07:18:07.854Z,3.46
2017-02-02T07:19:07.477Z,3.44
2017-02-02T07:20:08.012Z,3.32
2017-02-02T07:21:07.869Z,3.24
2017-02-02T07:22:07.474Z,3.27
2017-02-02T07:23:08.087Z,3.40
2017-02-02T07:24:07.702Z,3.25
2017-02-02T07:25:07.326Z,3.36
2017-02-02T07:26:07.953Z,3.47
2017-02-02T07:27:07.548Z,3.41
2017-02-02T07:28:07.043Z,3.59
2017-02-02T07:29:07.856Z,3.41
2017-02-02T07:30:07.427Z,3.57
2017-02-02T07:31:07.990Z,3.69
2017-02-02T07:32:07.654Z,3.57
2017-02-02T07:33:07.182Z,3.66
2017-02-02T07:34:07.757Z,3.72
2017-02-02T07:35:07.286Z,3.68
2017-02-02T07:36:08.108Z,3.63
2017-02-02T07:37:07.841Z,3.46
2017-02-02T07:38:07.429Z,3.62
2017-02-02T07:39:08.013Z,3.52
2017-02-02T07:40:07.529Z,3.46
2017-02-02T07:41:08.116Z,3.40
2017-02-02T07:42:07.692Z,3.37
2017-02-02T07:43:07.294Z,3.48
2017-02-02T07:44:07.875Z,3.51
2017-02-02T07:45:07.410Z,3.50
2017-02-02T07:46:07.901Z,3.50
2017-02-02T07:47:07.710Z,3.68
2017-02-02T07:48:07.196Z,3.72
2017-02-02T07:49:07.680Z,3.58
2017-02-02T07:50:08.013Z,3.68
2017-02-02T07:51:07.520Z,3.70
2017-02-02T07:52:08.163Z,3.73
2017-02-02T07:53:07.649Z,3.87
2017-02-02T07:54:07.329Z,3.91
2017-02-02T07:55:07.841Z,3.90
2017-02-02T07:56:07.462Z,3.92
2017-02-02T07:57:07.952Z,4.02
2017-02-02T07:58:07.633Z,4.00
2017-02-02T07:59:07.149Z,4.07
2017-02-02T08:00:07.795Z,3.99
2017-02-02T08:01:07.280Z,3.83
2017-02-02T08:02:07.764Z,3.94
2017-02-02T08:03:07.392Z,3.77
2017-02-02T08:04:07.900Z,3.78
2017-02-02T08:05:07.400Z,4.03
2017-02-02T08:06:08.208Z,4.14
2017-02-02T08:07:07.704Z,4.19
2017-02-02T08:08:07.271Z,4.15
2017-02-02T08:09:07.957Z,4.10
2017-02-02T08:10:07.453Z,4.08
2017-02-02T08:11:08.351Z,4.07
2017-02-02T08:12:07.839Z,4.29
2017-02-02T08:13:07.675Z,4.30
2017-02-02T08:14:07.269Z,4.42
2017-02-02T08:15:07.763Z,4.39
2017-02-02T08:16:07.273Z,4.44
2017-02-02T08:17:07.994Z,4.50
2017-02-02T08:18:07.647Z,4.55
2017-02-02T08:19:07.204Z,4.60
2017-02-02T08:20:07.719Z,4.64
2017-02-02T08:21:07.623Z,4.69
2017-02-02T08:22:07.412Z,4.67
2017-02-02T08:23:07.966Z,4.68
2017-02-02T08:24:07.485Z,4.60
2017-02-02T08:25:07.798Z,4.50
2017-02-02T08:26:07.399Z,4.49
2017-02-02T08:27:07.999Z,4.55
2017-02-02T08:28:07.612Z,4.62
2017-02-02T08:29:07.239Z,4.81
2017-02-02T08:30:07.781Z,4.77
2017-02-02T08:31:07.636Z,4.77
2017-02-02T08:32:07.171Z,4.76
2017-02-02T08:33:07.756Z,4.87
2017-02-02T08:34:07.486Z,4.87
2017-02-02T08:35:08.027Z,4.95
2017-02-02T08:36:07.680Z,5.01
2017-02-02T08:37:07.554Z,5.04
2017-02-02T08:38:07.166Z,5.05
2017-02-02T08:39:07.840Z,5.01
2017-02-02T08:40:07.416Z,5.05
2017-02-02T08:41:07.967Z,5.06
2017-02-02T08:42:07.451Z,5.14
2017-02-02T08:43:08.179Z,5.22
2017-02-02T08:44:07.959Z,5.25
2017-02-02T08:45:07.451Z,5.22
2017-02-02T08:46:08.066Z,5.32
2017-02-02T08:47:07.595Z,5.35
2017-02-02T08:48:07.171Z,5.32
2017-02-02T08:49:07.854Z,5.35
2017-02-02T08:50:07.416Z,5.22
2017-02-02T08:51:08.050Z,5.34
2017-02-02T08:52:07.724Z,5.30
2017-02-02T08:53:07.320Z,5.33
2017-02-02T08:54:07.936Z,5.30
2017-02-02T08:55:07.558Z,5.36
2017-02-02T08:56:07.138Z,5.24
2017-02-02T08:57:07.687Z,5.27
2017-02-02T08:58:07.440Z,5.46
2017-02-02T08:59:08.088Z,5.47
2017-02-02T09:00:07.684Z,5.29
2017-02-02T09:01:07.266Z,5.39
2017-02-02T09:02:07.785Z,5.40
2017-02-02T09:03:07.407Z,5.39
2017-02-02T09:04:07.894Z,5.39
2017-02-02T09:05:07.864Z,5.48
2017-02-02T09:06:07.503Z,5.51
2017-02-02T09:07:07.001Z,5.49
2017-02-02T09:08:07.543Z,5.52
2017-02-02T09:09:07.148Z,5.42
2017-02-02T09:10:07.806Z,5.35
2017-02-02T09:11:07.345Z,5.48
2017-02-02T09:12:07.847Z,5.42
2017-02-02T09:13:07.356Z,5.50
2017-02-02T09:14:07.860Z,5.53
2017-02-02T09:15:07.588Z,5.54
2017-02-02T09:16:07.152Z,5.46
2017-02-02T09:17:07.798Z,5.49
2017-02-02T09:18:07.266Z,5.50
2017-02-02T09:19:08.054Z,5.52
2017-02-02T09:20:08.539Z,5.60
2017-02-02T09:21:07.096Z,5.64
2017-02-02T09:22:07.795Z,5.65
2017-02-02T09:23:07.314Z,5.65
2017-02-02T09:24:07.974Z,5.68
2017-02-02T09:25:07.746Z,5.67
2017-02-02T09:26:07.331Z,5.74
2017-02-02T09:27:08.791Z,5.65
2017-02-02T09:28:07.348Z,5.77
2017-02-02T09:29:08.160Z,5.71
2017-02-02T09:30:08.156Z,5.73
2017-02-02T09:31:07.582Z,5.93
2017-02-02T09:32:07.168Z,5.89
2017-02-02T09:33:07.692Z,6.02
2017-02-02T09:34:07.333Z,5.88
2017-02-02T09:35:07.911Z,6.06
2017-02-02T09:36:07.723Z,6.08
2017-02-02T09:37:07.301Z,5.87
2017-02-02T09:38:08.070Z,6.05
2017-02-02T09:39:07.659Z,6.10
2017-02-02T09:40:07.515Z,5.98
2017-02-02T09:41:07.312Z,6.16
2017-02-02T09:42:07.950Z,6.19
2017-02-02T09:43:07.467Z,6.08
2017-02-02T09:44:08.021Z,6.25
2017-02-02T09:45:07.468Z,6.06
2017-02-02T09:46:08.021Z,6.13
2017-02-02T09:47:07.566Z,6.14
2017-02-02T09:48:07.109Z,6.28
2017-02-02T09:49:07.682Z,6.44
2017-02-02T09:50:07.182Z,6.42
2017-02-02T09:51:07.755Z,6.46
2017-02-02T09:52:07.403Z,6.31
2017-02-02T09:53:07.937Z,6.30
2017-02-02T09:54:07.465Z,6.40
2017-02-02T09:55:08.074Z,6.53
2017-02-02T09:56:07.697Z,6.44
2017-02-02T09:57:07.237Z,6.37
2017-02-02T09:58:08.074Z,6.42
2017-02-02T09:59:07.653Z,6.54
2017-02-02T10:00:07.132Z,6.64
2017-02-02T10:01:07.681Z,6.62
2017-02-02T10:02:07.368Z,6.63
2017-02-02T10:03:07.983Z,6.68
2017-02-02T10:04:07.548Z,6.53
2017-02-02T10:05:07.137Z,6.54
2017-02-02T10:06:07.856Z,6.56
2017-02-02T10:07:07.337Z,6.52
2017-02-02T10:08:07.998Z,6.64
2017-02-02T10:09:07.579Z,6.65
2017-02-02T10:10:07.120Z,6.64
2017-02-02T10:11:07.674Z,6.65
2017-02-02T10:12:07.315Z,6.71
2017-02-02T10:13:07.878Z,6.61
2017-02-02T10:14:07.611Z,6.58
2017-02-02T10:15:07.288Z,6.55
2017-02-02T10:16:07.878Z,6.58
2017-02-02T10:17:07.499Z,6.63
2017-02-02T10:18:08.074Z,6.56
2017-02-02T10:19:07.598Z,6.55
2017-02-02T10:20:07.679Z,6.62
2017-02-02T10:21:07.453Z,6.62
2017-02-02T10:22:07.668Z,6.59
2017-02-02T10:23:07.184Z,6.56
2017-02-02T10:24:07.786Z,6.64
2017-02-02T10:25:07.300Z,6.56
2017-02-02T10:26:07.917Z,6.56
2017-02-02T10:27:07.549Z,6.64
2017-02-02T10:28:07.149Z,6.69
2017-02-02T10:29:07.738Z,6.75
2017-02-02T10:30:07.262Z,6.77
2017-02-02T10:31:07.843Z,6.71
2017-02-02T10:32:07.390Z,6.82
2017-02-02T10:33:20.414Z,6.78
2017-02-02T10:34:07.393Z,6.80
2017-02-02T10:35:07.387Z,6.90
2017-02-02T10:36:08.149Z,6.87
2017-02-02T10:37:07.693Z,6.91
2017-02-02T10:38:07.212Z,7.03
2017-02-02T10:39:07.969Z,7.08
2017-02-02T10:40:07.551Z,7.03
2017-02-02T10:41:08.178Z,7.08
2017-02-02T10:42:08.404Z,7.16
2017-02-02T10:43:07.929Z,7.15
2017-02-02T10:44:07.662Z,7.13
2017-02-02T10:45:07.148Z,7.23
2017-02-02T10:46:07.636Z,7.29
2017-02-02T10:47:07.109Z,7.34
2017-02-02T10:48:08.088Z,7.38
2017-02-02T10:49:07.592Z,7.47
2017-02-02T10:50:07.162Z,7.47
2017-02-02T10:51:07.698Z,7.48
2017-02-02T10:52:07.234Z,7.59
2017-02-02T10:53:08.044Z,7.67
2017-02-02T10:54:07.593Z,7.66
2017-02-02T10:55:07.110Z,7.74
2017-02-02T10:56:07.641Z,7.70
2017-02-02T10:57:07.173Z,7.79
2017-02-02T10:58:07.669Z,7.88
2017-02-02T10:59:07.160Z,7.91
2017-02-02T11:00:08.598Z,7.90
2017-02-02T11:01:07.683Z,7.93
2017-02-02T11:02:07.218Z,7.98
2017-02-02T11:03:07.788Z,8.08
2017-02-02T11:04:07.463Z,8.12
2017-02-02T11:05:08.005Z,8.06
2017-02-02T11:06:07.679Z,8.01
2017-02-02T11:07:07.223Z,8.04
2017-02-02T11:08:07.722Z,8.07
2017-02-02T11:09:07.249Z,8.08
2017-02-02T11:10:07.826Z,8.01
2017-02-02T11:11:07.455Z,8.05
2017-02-02T11:12:07.971Z,8.08
2017-02-02T11:13:07.408Z,7.99
2017-02-02T11:14:07.808Z,8.00
2017-02-02T11:15:07.326Z,8.10
2017-02-02T11:16:07.869Z,8.11
2017-02-02T11:17:07.569Z,8.13
2017-02-02T11:18:08.082Z,8.22
2017-02-02T11:19:07.666Z,8.13
2017-02-02T11:20:07.183Z,8.15
2017-02-02T11:21:07.693Z,8.09
2017-02-02T11:22:07.243Z,8.18
2017-02-02T11:23:07.804Z,8.04
2017-02-02T11:24:07.651Z,8.00
2017-02-02T11:25:07.200Z,7.89
2017-02-02T11:26:07.765Z,7.86
2017-02-02T11:27:07.492Z,7.85
2017-02-02T11:28:08.053Z,7.80
2017-02-02T11:29:07.570Z,7.78
2017-02-02T11:30:08.135Z,7.83
2017-02-02T11:31:07.381Z,7.81
2017-02-02T11:32:08.236Z,7.80
2017-02-02T11:33:07.755Z,7.84
2017-02-02T11:34:07.320Z,7.89
2017-02-02T11:35:07.906Z,7.90
2017-02-02T11:36:07.730Z,7.90
2017-02-02T11:37:07.604Z,7.92
2017-02-02T11:38:08.144Z,7.87
2017-02-02T11:39:07.671Z,7.89
2017-02-02T11:40:07.516Z,7.83
2017-02-02T11:41:08.048Z,7.81
2017-02-02T11:42:07.625Z,7.79
2017-02-02T11:43:08.436Z,7.83
2017-02-02T11:44:08.047Z,7.92
2017-02-02T11:45:07.567Z,7.97
2017-02-02T11:46:08.069Z,8.01
2017-02-02T11:47:07.556Z,8.02
2017-02-02T11:48:08.161Z,8.05
2017-02-02T11:49:07.687Z,8.06
2017-02-02T11:50:07.275Z,7.95
2017-02-02T11:51:07.809Z,7.94
2017-02-02T11:52:07.470Z,7.97
2017-02-02T11:53:08.050Z,7.97
2017-02-02T11:54:07.668Z,8.04
2017-02-02T11:55:07.230Z,8.10
2017-02-02T11:56:07.725Z,8.22
2017-02-02T11:57:07.409Z,8.17
2017-02-02T11:58:07.926Z,8.27
2017-02-02T11:59:07.494Z,8.26
2017-02-02T12:00:08.076Z,8.22
2017-02-02T12:01:07.668Z,8.22
2017-02-02T12:02:08.235Z,8.22
2017-02-02T12:03:07.784Z,8.28
2017-02-02T12:04:07.383Z,8.34
2017-02-02T12:05:07.992Z,8.35
2017-02-02T12:06:07.752Z,8.33
2017-02-02T12:07:08.208Z,8.29
2017-02-02T12:08:07.807Z,8.32
2017-02-02T12:09:07.422Z,8.37
2017-02-02T12:10:07.991Z,8.38
2017-02-02T12:11:07.522Z,8.41
2017-02-02T12:12:08.048Z,8.43
2017-02-02T12:13:07.533Z,8.49
2017-02-02T12:14:08.103Z,8.56
2017-02-02T12:15:07.709Z,8.62
2017-02-02T12:16:07.369Z,8.61
2017-02-02T12:17:08.081Z,8.57
2017-02-02T12:18:07.568Z,8.58
2017-02-02T12:19:08.129Z,8.55
2017-02-02T12:20:07.714Z,8.59
2017-02-02T12:21:07.209Z,8.62
2017-02-02T12:22:07.689Z,8.70
2017-02-02T12:23:07.469Z,8.70
2017-02-02T12:24:08.044Z,8.70
2017-02-02T12:25:07.615Z,8.77
2017-02-02T12:26:08.215Z,8.81
2017-02-02T12:27:07.732Z,8.84
2017-02-02T12:28:07.202Z,8.86
2017-02-02T12:29:08.708Z,8.79
2017-02-02T12:30:07.497Z,8.79
2017-02-02T12:31:07.997Z,8.79
2017-02-02T12:32:07.458Z,8.79
2017-02-02T12:33:07.964Z,8.82
2017-02-02T12:34:07.474Z,8.88
2017-02-02T12:35:08.023Z,8.94
2017-02-02T12:36:07.774Z,8.93
2017-02-02T12:37:07.381Z,8.95
2017-02-02T12:38:07.904Z,9.01
2017-02-02T12:39:07.461Z,9.09
2017-02-02T12:40:08.078Z,9.17
2017-02-02T12:41:07.618Z,9.22
2017-02-02T12:42:08.201Z,9.26
2017-02-02T12:43:08.187Z,9.31
2017-02-02T12:44:07.758Z,9.32
2017-02-02T12:45:07.363Z,9.27
2017-02-02T12:46:07.883Z,9.32
2017-02-02T12:47:07.622Z,9.34
2017-02-02T12:48:08.257Z,9.36
2017-02-02T12:49:07.875Z,9.38
2017-02-02T12:50:07.485Z,9.38
2017-02-02T12:51:08.096Z,9.42
2017-02-02T12:52:07.643Z,9.40
2017-02-02T12:53:08.226Z,9.44
2017-02-02T12:54:07.870Z,9.46
2017-02-02T12:55:07.507Z,9.43
2017-02-02T12:56:08.012Z,9.42
2017-02-02T12:57:07.614Z,9.41
2017-02-02T12:58:08.155Z,9.36
2017-02-02T12:59:07.652Z,9.32
2017-02-02T13:00:08.173Z,9.22
2017-02-02T13:01:07.755Z,9.25
2017-02-02T13:02:07.341Z,9.21
2017-02-02T13:03:07.869Z,9.18
2017-02-02T13:04:07.384Z,9.17
2017-02-02T13:05:07.951Z,9.10
2017-02-02T13:06:07.625Z,9.16
2017-02-02T13:07:08.230Z,9.17
2017-02-02T13:08:08.059Z,9.14
2017-02-02T13:09:07.642Z,9.14
2017-02-02T13:10:08.237Z,9.14
2017-02-02T13:11:07.823Z,9.20
2017-02-02T13:12:07.315Z,9.22
2017-02-02T13:13:07.899Z,9.22
2017-02-02T13:14:07.496Z,9.20
2017-02-02T13:15:08.050Z,9.21
2017-02-02T13:16:07.563Z,9.27
2017-02-02T13:17:08.272Z,9.33
2017-02-02T13:18:07.912Z,9.37